sensor_id;sensor_type;location;lat;lon;timestamp;pressure;altitude;pressure_sealevel;temperature;humidity
64521;BME280;50896;46.714;17.322;2024-01-30T00:00:21;102744.75;;;-0.86;100.00
64521;BME280;50896;46.714;17.322;2024-01-30T00:02:48;102754.31;;;-0.85;100.00
64521;BME280;50896;46.714;17.322;2024-01-30T00:05:15;102748.22;;;-0.86;100.00
64521;BME280;50896;46.714;17.322;2024-01-30T00:07:41;102749.94;;;-0.84;100.00
64521;BME280;50896;46.714;17.322;2024-01-30T00:10:08;102748.31;;;-0.90;100.00
64521;BME280;50896;46.714;17.322;2024-01-30T00:12:35;102743.16;;;-0.93;100.00
64521;BME280;50896;46.714;17.322;2024-01-30T00:15:02;102754.22;;;-0.80;100.00
64521;BME280;50896;46.714;17.322;2024-01-30T00:17:31;102745.47;;;-0.78;100.00
64521;BME280;50896;46.714;17.322;2024-01-30T00:19:58;102751.66;;;-0.82;100.00
64521;BME280;50896;46.714;17.322;2024-01-30T00:22:25;102749.91;;;-0.83;100.00
64521;BME280;50896;46.714;17.322;2024-01-30T00:24:52;102755.31;;;-0.91;100.00
64521;BME280;50896;46.714;17.322;2024-01-30T00:27:19;102757.03;;;-0.91;100.00
64521;BME280;50896;46.714;17.322;2024-01-30T00:29:46;102749.09;;;-0.85;100.00
64521;BME280;50896;46.714;17.322;2024-01-30T00:32:13;102749.25;;;-0.93;100.00
64521;BME280;50896;46.714;17.322;2024-01-30T00:34:40;102747.44;;;-0.89;100.00
64521;BME280;50896;46.714;17.322;2024-01-30T00:37:07;102764.81;;;-0.88;100.00
64521;BME280;50896;46.714;17.322;2024-01-30T00:39:34;102769.13;;;-0.86;100.00
64521;BME280;50896;46.714;17.322;2024-01-30T00:42:00;102763.09;;;-0.88;100.00
64521;BME280;50896;46.714;17.322;2024-01-30T00:44:27;102758.78;;;-0.90;100.00
64521;BME280;50896;46.714;17.322;2024-01-30T00:46:54;102766.47;;;-0.84;100.00
64521;BME280;50896;46.714;17.322;2024-01-30T00:49:21;102765.53;;;-0.80;100.00
64521;BME280;50896;46.714;17.322;2024-01-30T00:51:48;102769.09;;;-0.84;100.00
64521;BME280;50896;46.714;17.322;2024-01-30T00:54:15;102760.50;;;-0.89;100.00
64521;BME280;50896;46.714;17.322;2024-01-30T00:56:42;102762.31;;;-0.93;100.00
64521;BME280;50896;46.714;17.322;2024-01-30T00:59:08;102757.13;;;-0.94;100.00
64521;BME280;50896;46.714;17.322;2024-01-30T01:01:35;102765.00;;;-0.97;100.00
64521;BME280;50896;46.714;17.322;2024-01-30T01:04:02;102762.50;;;-1.04;100.00
64521;BME280;50896;46.714;17.322;2024-01-30T01:06:30;102758.22;;;-1.08;100.00
64521;BME280;50896;46.714;17.322;2024-01-30T01:08:56;102759.25;;;-1.15;100.00
64521;BME280;50896;46.714;17.322;2024-01-30T01:11:23;102750.75;;;-1.26;100.00
64521;BME280;50896;46.714;17.322;2024-01-30T01:13:50;102749.09;;;-1.30;100.00
64521;BME280;50896;46.714;17.322;2024-01-30T01:16:17;102761.13;;;-1.23;100.00
64521;BME280;50896;46.714;17.322;2024-01-30T01:18:44;102759.50;;;-1.29;100.00
64521;BME280;50896;46.714;17.322;2024-01-30T01:21:11;102740.53;;;-1.39;100.00
64521;BME280;50896;46.714;17.322;2024-01-30T01:23:37;102759.69;;;-1.40;100.00
64521;BME280;50896;46.714;17.322;2024-01-30T01:26:04;102754.66;;;-1.49;100.00
64521;BME280;50896;46.714;17.322;2024-01-30T01:28:32;102751.25;;;-1.54;100.00
64521;BME280;50896;46.714;17.322;2024-01-30T01:30:59;102763.41;;;-1.53;100.00
64521;BME280;50896;46.714;17.322;2024-01-30T01:33:32;102765.28;;;-1.61;100.00
64521;BME280;50896;46.714;17.322;2024-01-30T01:36:00;102759.22;;;-1.63;100.00
64521;BME280;50896;46.714;17.322;2024-01-30T01:38:29;102760.19;;;-1.69;100.00
64521;BME280;50896;46.714;17.322;2024-01-30T01:40:56;102761.16;;;-1.76;100.00
64521;BME280;50896;46.714;17.322;2024-01-30T01:43:22;102760.31;;;-1.77;100.00
64521;BME280;50896;46.714;17.322;2024-01-30T01:45:50;102758.75;;;-1.89;100.00
64521;BME280;50896;46.714;17.322;2024-01-30T01:48:17;102754.44;;;-1.90;100.00
64521;BME280;50896;46.714;17.322;2024-01-30T01:50:44;102758.03;;;-1.95;100.00
64521;BME280;50896;46.714;17.322;2024-01-30T01:53:12;102749.28;;;-1.94;100.00
64521;BME280;50896;46.714;17.322;2024-01-30T01:55:39;102752.75;;;-1.92;100.00
64521;BME280;50896;46.714;17.322;2024-01-30T01:58:07;102751.78;;;-1.86;100.00
64521;BME280;50896;46.714;17.322;2024-01-30T02:00:36;102750.94;;;-1.87;100.00
64521;BME280;50896;46.714;17.322;2024-01-30T02:03:06;102741.44;;;-1.91;100.00
64521;BME280;50896;46.714;17.322;2024-01-30T02:05:34;102733.72;;;-1.99;100.00
64521;BME280;50896;46.714;17.322;2024-01-30T02:08:02;102747.53;;;-1.92;100.00
64521;BME280;50896;46.714;17.322;2024-01-30T02:10:30;102744.97;;;-1.95;100.00
64521;BME280;50896;46.714;17.322;2024-01-30T02:12:57;102741.47;;;-1.94;100.00
64521;BME280;50896;46.714;17.322;2024-01-30T02:15:23;102744.00;;;-1.88;100.00
64521;BME280;50896;46.714;17.322;2024-01-30T02:17:51;102742.22;;;-1.87;100.00
64521;BME280;50896;46.714;17.322;2024-01-30T02:20:18;102742.22;;;-1.87;100.00
64521;BME280;50896;46.714;17.322;2024-01-30T02:22:46;102746.66;;;-1.91;100.00
64521;BME280;50896;46.714;17.322;2024-01-30T02:25:13;102738.84;;;-1.91;100.00
64521;BME280;50896;46.714;17.322;2024-01-30T02:27:40;102735.28;;;-1.89;100.00
64521;BME280;50896;46.714;17.322;2024-01-30T02:30:07;102745.72;;;-1.87;100.00
64521;BME280;50896;46.714;17.322;2024-01-30T02:32:34;102737.00;;;-1.86;100.00
64521;BME280;50896;46.714;17.322;2024-01-30T02:35:01;102750.81;;;-1.79;100.00
64521;BME280;50896;46.714;17.322;2024-01-30T02:37:28;102752.41;;;-1.72;100.00
64521;BME280;50896;46.714;17.322;2024-01-30T02:39:55;102746.25;;;-1.68;100.00
64521;BME280;50896;46.714;17.322;2024-01-30T02:42:23;102735.88;;;-1.71;100.00
64521;BME280;50896;46.714;17.322;2024-01-30T02:44:49;102746.22;;;-1.66;100.00
64521;BME280;50896;46.714;17.322;2024-01-30T02:47:16;102742.84;;;-1.70;100.00
64521;BME280;50896;46.714;17.322;2024-01-30T02:49:43;102750.69;;;-1.72;100.00
64521;BME280;50896;46.714;17.322;2024-01-30T02:52:10;102743.72;;;-1.71;100.00
64521;BME280;50896;46.714;17.322;2024-01-30T02:54:37;102744.66;;;-1.75;100.00
64521;BME280;50896;46.714;17.322;2024-01-30T02:57:04;102738.66;;;-1.82;100.00
64521;BME280;50896;46.714;17.322;2024-01-30T02:59:31;102731.84;;;-1.89;100.00
64521;BME280;50896;46.714;17.322;2024-01-30T03:01:59;102738.81;;;-1.93;100.00
64521;BME280;50896;46.714;17.322;2024-01-30T03:04:27;102735.50;;;-2.02;100.00
64521;BME280;50896;46.714;17.322;2024-01-30T03:06:54;102735.50;;;-2.02;100.00
64521;BME280;50896;46.714;17.322;2024-01-30T03:09:21;102728.72;;;-2.13;100.00
64521;BME280;50896;46.714;17.322;2024-01-30T03:11:48;102729.81;;;-2.28;100.00
64521;BME280;50896;46.714;17.322;2024-01-30T03:14:14;102728.97;;;-2.30;100.00
64521;BME280;50896;46.714;17.322;2024-01-30T03:16:41;102734.31;;;-2.39;100.00
64521;BME280;50896;46.714;17.322;2024-01-30T03:19:08;102740.47;;;-2.45;100.00
64521;BME280;50896;46.714;17.322;2024-01-30T03:21:36;102731.84;;;-2.48;100.00
64521;BME280;50896;46.714;17.322;2024-01-30T03:24:03;102728.44;;;-2.53;100.00
64521;BME280;50896;46.714;17.322;2024-01-30T03:26:30;102725.16;;;-2.66;100.00
64521;BME280;50896;46.714;17.322;2024-01-30T03:28:57;102723.53;;;-2.77;100.00
64521;BME280;50896;46.714;17.322;2024-01-30T03:31:24;102734.84;;;-2.81;100.00
64521;BME280;50896;46.714;17.322;2024-01-30T03:33:51;102729.75;;;-2.87;100.00
64521;BME280;50896;46.714;17.322;2024-01-30T03:36:18;102728.13;;;-2.96;100.00
64521;BME280;50896;46.714;17.322;2024-01-30T03:38:45;102727.34;;;-3.07;100.00
64521;BME280;50896;46.714;17.322;2024-01-30T03:41:12;102721.22;;;-3.03;100.00
64521;BME280;50896;46.714;17.322;2024-01-30T03:43:38;102721.41;;;-3.18;100.00
64521;BME280;50896;46.714;17.322;2024-01-30T03:46:05;102728.34;;;-3.17;100.00
64521;BME280;50896;46.714;17.322;2024-01-30T03:48:32;102728.38;;;-3.20;100.00
64521;BME280;50896;46.714;17.322;2024-01-30T03:50:59;102724.06;;;-3.23;100.00
64521;BME280;50896;46.714;17.322;2024-01-30T03:53:26;102726.72;;;-3.26;100.00
64521;BME280;50896;46.714;17.322;2024-01-30T03:55:53;102728.53;;;-3.34;100.00
64521;BME280;50896;46.714;17.322;2024-01-30T03:58:19;102716.50;;;-3.43;100.00
64521;BME280;50896;46.714;17.322;2024-01-30T04:00:46;102722.47;;;-3.38;100.00
64521;BME280;50896;46.714;17.322;2024-01-30T04:03:16;102732.88;;;-3.35;100.00
64521;BME280;50896;46.714;17.322;2024-01-30T04:05:45;102716.50;;;-3.46;100.00
64521;BME280;50896;46.714;17.322;2024-01-30T04:08:12;102712.25;;;-3.55;100.00
64521;BME280;50896;46.714;17.322;2024-01-30T04:10:38;102723.44;;;-3.45;100.00
64521;BME280;50896;46.714;17.322;2024-01-30T04:13:05;102719.09;;;-3.45;100.00
64521;BME280;50896;46.714;17.322;2024-01-30T04:15:37;102711.28;;;-3.46;100.00
64521;BME280;50896;46.714;17.322;2024-01-30T04:18:04;102717.41;;;-3.50;100.00
64521;BME280;50896;46.714;17.322;2024-01-30T04:20:31;102725.22;;;-3.52;100.00
64521;BME280;50896;46.714;17.322;2024-01-30T04:22:58;102722.69;;;-3.58;100.00
64521;BME280;50896;46.714;17.322;2024-01-30T04:25:25;102714.97;;;-3.67;100.00
64521;BME280;50896;46.714;17.322;2024-01-30T04:27:52;102709.84;;;-3.73;100.00
64521;BME280;50896;46.714;17.322;2024-01-30T04:30:19;102719.28;;;-3.66;100.00
64521;BME280;50896;46.714;17.322;2024-01-30T04:32:47;102714.97;;;-3.64;100.00
64521;BME280;50896;46.714;17.322;2024-01-30T04:35:14;102702.84;;;-3.70;100.00
64521;BME280;50896;46.714;17.322;2024-01-30T04:37:41;102713.28;;;-3.73;100.00
64521;BME280;50896;46.714;17.322;2024-01-30T04:40:08;102712.44;;;-3.73;100.00
64521;BME280;50896;46.714;17.322;2024-01-30T04:42:36;102713.28;;;-3.74;100.00
64521;BME280;50896;46.714;17.322;2024-01-30T04:45:03;102708.16;;;-3.79;100.00
64521;BME280;50896;46.714;17.322;2024-01-30T04:47:30;102702.13;;;-3.84;100.00
64521;BME280;50896;46.714;17.322;2024-01-30T04:49:57;102722.88;;;-3.76;100.00
64521;BME280;50896;46.714;17.322;2024-01-30T04:52:24;102696.94;;;-3.87;100.00
64521;BME280;50896;46.714;17.322;2024-01-30T04:54:51;102717.66;;;-3.76;100.00
64521;BME280;50896;46.714;17.322;2024-01-30T04:57:17;102715.97;;;-3.81;100.00
64521;BME280;50896;46.714;17.322;2024-01-30T04:59:44;102723.72;;;-3.76;100.00
64521;BME280;50896;46.714;17.322;2024-01-30T05:02:11;102723.69;;;-3.74;100.00
64521;BME280;50896;46.714;17.322;2024-01-30T05:04:38;102727.19;;;-3.77;100.00
64521;BME280;50896;46.714;17.322;2024-01-30T05:07:05;102728.03;;;-3.73;100.00
64521;BME280;50896;46.714;17.322;2024-01-30T05:09:32;102729.78;;;-3.77;100.00
64521;BME280;50896;46.714;17.322;2024-01-30T05:11:59;102728.91;;;-3.74;100.00
64521;BME280;50896;46.714;17.322;2024-01-30T05:14:26;102728.09;;;-3.83;100.00
64521;BME280;50896;46.714;17.322;2024-01-30T05:16:53;102722.09;;;-3.86;100.00
64521;BME280;50896;46.714;17.322;2024-01-30T05:19:20;102728.97;;;-3.81;100.00
64521;BME280;50896;46.714;17.322;2024-01-30T05:21:50;102723.78;;;-3.87;100.00
64521;BME280;50896;46.714;17.322;2024-01-30T05:24:16;102735.06;;;-3.85;100.00
64521;BME280;50896;46.714;17.322;2024-01-30T05:26:46;102724.75;;;-3.96;100.00
64521;BME280;50896;46.714;17.322;2024-01-30T05:29:14;102738.53;;;-3.87;100.00
64521;BME280;50896;46.714;17.322;2024-01-30T05:31:41;102723.88;;;-3.95;100.00
64521;BME280;50896;46.714;17.322;2024-01-30T05:34:09;102748.06;;;-3.86;100.00
64521;BME280;50896;46.714;17.322;2024-01-30T05:36:36;102744.56;;;-3.85;100.00
64521;BME280;50896;46.714;17.322;2024-01-30T05:39:03;102741.09;;;-3.83;100.00
64521;BME280;50896;46.714;17.322;2024-01-30T05:41:33;102744.56;;;-3.85;100.00
64521;BME280;50896;46.714;17.322;2024-01-30T05:44:00;102739.47;;;-3.95;100.00
64521;BME280;50896;46.714;17.322;2024-01-30T05:46:27;102745.50;;;-3.92;100.00
64521;BME280;50896;46.714;17.322;2024-01-30T05:48:54;102742.88;;;-3.86;100.00
64521;BME280;50896;46.714;17.322;2024-01-30T05:51:21;102747.22;;;-3.90;100.00
64521;BME280;50896;46.714;17.322;2024-01-30T05:53:48;102748.94;;;-3.86;100.00
64521;BME280;50896;46.714;17.322;2024-01-30T05:56:14;102746.38;;;-3.90;100.00
64521;BME280;50896;46.714;17.322;2024-01-30T05:58:42;102746.38;;;-3.92;100.00
64521;BME280;50896;46.714;17.322;2024-01-30T06:01:09;102742.84;;;-3.85;100.00
64521;BME280;50896;46.714;17.322;2024-01-30T06:03:36;102738.50;;;-3.83;100.00
64521;BME280;50896;46.714;17.322;2024-01-30T06:06:03;102752.25;;;-3.70;100.00
64521;BME280;50896;46.714;17.322;2024-01-30T06:08:30;102742.66;;;-3.63;100.00
64521;BME280;50896;46.714;17.322;2024-01-30T06:10:57;102749.53;;;-3.53;100.00
64521;BME280;50896;46.714;17.322;2024-01-30T06:13:24;102748.59;;;-3.50;100.00
64521;BME280;50896;46.714;17.322;2024-01-30T06:15:51;102743.44;;;-3.52;100.00
64521;BME280;50896;46.714;17.322;2024-01-30T06:18:18;102746.81;;;-3.44;100.00
64521;BME280;50896;46.714;17.322;2024-01-30T06:20:44;102758.06;;;-3.40;100.00
64521;BME280;50896;46.714;17.322;2024-01-30T06:23:11;102764.13;;;-3.41;100.00
64521;BME280;50896;46.714;17.322;2024-01-30T06:25:39;102758.16;;;-3.51;100.00
64521;BME280;50896;46.714;17.322;2024-01-30T06:28:06;102757.31;;;-3.53;100.00
64521;BME280;50896;46.714;17.322;2024-01-30T06:30:33;102757.31;;;-3.53;100.00
64521;BME280;50896;46.714;17.322;2024-01-30T06:33:00;102756.44;;;-3.49;100.00
64521;BME280;50896;46.714;17.322;2024-01-30T06:35:27;102753.78;;;-3.46;100.00
64521;BME280;50896;46.714;17.322;2024-01-30T06:37:55;102762.44;;;-3.44;100.00
64521;BME280;50896;46.714;17.322;2024-01-30T06:40:22;102760.66;;;-3.38;100.00
64521;BME280;50896;46.714;17.322;2024-01-30T06:42:49;102763.25;;;-3.38;100.00
64521;BME280;50896;46.714;17.322;2024-01-30T06:45:16;102767.53;;;-3.33;100.00
64521;BME280;50896;46.714;17.322;2024-01-30T06:47:43;102770.97;;;-3.29;100.00
64521;BME280;50896;46.714;17.322;2024-01-30T06:50:10;102759.72;;;-3.31;100.00
64521;BME280;50896;46.714;17.322;2024-01-30T06:52:37;102769.22;;;-3.27;100.00
64521;BME280;50896;46.714;17.322;2024-01-30T06:55:04;102770.94;;;-3.24;100.00
64521;BME280;50896;46.714;17.322;2024-01-30T06:57:31;102770.84;;;-3.17;100.00
64521;BME280;50896;46.714;17.322;2024-01-30T06:59:58;102768.06;;;-3.00;100.00
64521;BME280;50896;46.714;17.322;2024-01-30T07:02:25;102774.03;;;-2.90;100.00
64521;BME280;50896;46.714;17.322;2024-01-30T07:04:52;102779.13;;;-2.78;100.00
64521;BME280;50896;46.714;17.322;2024-01-30T07:07:19;102774.66;;;-2.68;100.00
64521;BME280;50896;46.714;17.322;2024-01-30T07:09:46;102773.59;;;-2.54;100.00
64521;BME280;50896;46.714;17.322;2024-01-30T07:12:15;102766.56;;;-2.48;100.00
64521;BME280;50896;46.714;17.322;2024-01-30T07:14:41;102775.03;;;-2.32;100.00
64521;BME280;50896;46.714;17.322;2024-01-30T07:17:08;102765.38;;;-2.24;100.00
64521;BME280;50896;46.714;17.322;2024-01-30T07:19:35;102767.00;;;-2.15;100.00
64521;BME280;50896;46.714;17.322;2024-01-30T07:22:02;102771.06;;;-1.98;100.00
64521;BME280;50896;46.714;17.322;2024-01-30T07:24:29;102774.34;;;-1.84;100.00
64521;BME280;50896;46.714;17.322;2024-01-30T07:26:56;102775.97;;;-1.77;100.00
64521;BME280;50896;46.714;17.322;2024-01-30T07:29:24;102764.59;;;-1.73;100.00
64521;BME280;50896;46.714;17.322;2024-01-30T07:31:51;102776.53;;;-1.59;100.00
64521;BME280;50896;46.714;17.322;2024-01-30T07:34:17;102768.50;;;-1.47;100.00
64521;BME280;50896;46.714;17.322;2024-01-30T07:36:44;102769.16;;;-1.32;100.00
64521;BME280;50896;46.714;17.322;2024-01-30T07:39:12;102768.91;;;-1.20;100.00
64521;BME280;50896;46.714;17.322;2024-01-30T07:41:40;102770.44;;;-1.08;100.00
64521;BME280;50896;46.714;17.322;2024-01-30T07:44:06;102769.31;;;-0.96;100.00
64521;BME280;50896;46.714;17.322;2024-01-30T07:46:33;102767.44;;;-0.88;100.00
64521;BME280;50896;46.714;17.322;2024-01-30T07:49:00;102774.94;;;-0.71;100.00
64521;BME280;50896;46.714;17.322;2024-01-30T07:51:28;102767.78;;;-0.63;100.00
64521;BME280;50896;46.714;17.322;2024-01-30T07:54:00;102764.84;;;-0.46;100.00
64521;BME280;50896;46.714;17.322;2024-01-30T07:56:26;102753.44;;;-0.43;100.00
64521;BME280;50896;46.714;17.322;2024-01-30T07:58:53;102768.84;;;-0.31;100.00
64521;BME280;50896;46.714;17.322;2024-01-30T08:01:20;102763.28;;;-0.15;100.00
64521;BME280;50896;46.714;17.322;2024-01-30T08:03:47;102762.31;;;-0.11;100.00
64521;BME280;50896;46.714;17.322;2024-01-30T08:06:14;102763.09;;;-0.08;100.00
64521;BME280;50896;46.714;17.322;2024-01-30T08:08:41;102763.88;;;-0.03;100.00
64521;BME280;50896;46.714;17.322;2024-01-30T08:11:08;102760.22;;;0.05;100.00
64521;BME280;50896;46.714;17.322;2024-01-30T08:13:34;102773.97;;;0.13;100.00
64521;BME280;50896;46.714;17.322;2024-01-30T08:16:01;102762.50;;;0.19;100.00
64521;BME280;50896;46.714;17.322;2024-01-30T08:18:28;102766.72;;;0.24;100.00
64521;BME280;50896;46.714;17.322;2024-01-30T08:20:55;102778.78;;;0.30;100.00
64521;BME280;50896;46.714;17.322;2024-01-30T08:23:22;102766.38;;;0.38;100.00
64521;BME280;50896;46.714;17.322;2024-01-30T08:25:49;102767.13;;;0.43;100.00
64521;BME280;50896;46.714;17.322;2024-01-30T08:28:15;102767.00;;;0.48;100.00
64521;BME280;50896;46.714;17.322;2024-01-30T08:30:45;102758.03;;;0.57;100.00
64521;BME280;50896;46.714;17.322;2024-01-30T08:33:12;102761.28;;;0.66;100.00
64521;BME280;50896;46.714;17.322;2024-01-30T08:35:40;102752.56;;;0.66;100.00
64521;BME280;50896;46.714;17.322;2024-01-30T08:38:06;102761.25;;;0.68;100.00
64521;BME280;50896;46.714;17.322;2024-01-30T08:40:33;102761.31;;;0.65;100.00
64521;BME280;50896;46.714;17.322;2024-01-30T08:43:00;102760.97;;;0.79;100.00
64521;BME280;50896;46.714;17.322;2024-01-30T08:45:27;102758.28;;;0.80;100.00
64521;BME280;50896;46.714;17.322;2024-01-30T08:47:54;102753.88;;;0.82;100.00
64521;BME280;50896;46.714;17.322;2024-01-30T08:50:21;102757.13;;;0.91;100.00
64521;BME280;50896;46.714;17.322;2024-01-30T08:52:48;102765.66;;;0.99;100.00
64521;BME280;50896;46.714;17.322;2024-01-30T08:55:16;102760.06;;;1.11;100.00
64521;BME280;50896;46.714;17.322;2024-01-30T08:57:43;102766.63;;;1.26;100.00
64521;BME280;50896;46.714;17.322;2024-01-30T09:00:10;102760.56;;;1.26;100.00
64521;BME280;50896;46.714;17.322;2024-01-30T09:02:37;102753.69;;;1.22;100.00
64521;BME280;50896;46.714;17.322;2024-01-30T09:05:04;102762.28;;;1.25;100.00
64521;BME280;50896;46.714;17.322;2024-01-30T09:07:31;102758.53;;;1.35;100.00
64521;BME280;50896;46.714;17.322;2024-01-30T09:09:58;102749.66;;;1.40;100.00
64521;BME280;50896;46.714;17.322;2024-01-30T09:12:25;102761.59;;;1.50;100.00
64521;BME280;50896;46.714;17.322;2024-01-30T09:14:52;102764.38;;;1.44;100.00
64521;BME280;50896;46.714;17.322;2024-01-30T09:17:19;102762.38;;;1.52;100.00
64521;BME280;50896;46.714;17.322;2024-01-30T09:19:46;102766.63;;;1.56;100.00
64521;BME280;50896;46.714;17.322;2024-01-30T09:22:13;102768.34;;;1.57;100.00
64521;BME280;50896;46.714;17.322;2024-01-30T09:24:41;102774.44;;;1.59;100.00
64521;BME280;50896;46.714;17.322;2024-01-30T09:27:08;102778.69;;;1.63;100.00
64521;BME280;50896;46.714;17.322;2024-01-30T09:29:34;102759.75;;;1.52;100.00
64521;BME280;50896;46.714;17.322;2024-01-30T09:32:04;102769.84;;;1.66;100.00
64521;BME280;50896;46.714;17.322;2024-01-30T09:34:31;102767.03;;;1.72;100.00
64521;BME280;50896;46.714;17.322;2024-01-30T09:36:59;102765.84;;;1.82;100.00
64521;BME280;50896;46.714;17.322;2024-01-30T09:39:26;102757.69;;;1.92;100.00
64521;BME280;50896;46.714;17.322;2024-01-30T09:42:27;102765.88;;;2.09;100.00
64521;BME280;50896;46.714;17.322;2024-01-30T09:44:56;102764.56;;;2.22;100.00
64521;BME280;50896;46.714;17.322;2024-01-30T09:47:22;102747.66;;;2.31;100.00
64521;BME280;50896;46.714;17.322;2024-01-30T09:49:51;102741.19;;;2.42;100.00
64521;BME280;50896;46.714;17.322;2024-01-30T09:52:18;102747.94;;;2.49;100.00
64521;BME280;50896;46.714;17.322;2024-01-30T09:54:45;102746.59;;;2.62;100.00
64521;BME280;50896;46.714;17.322;2024-01-30T09:57:12;102750.53;;;2.76;100.00
64521;BME280;50896;46.714;17.322;2024-01-30T09:59:39;102743.22;;;2.84;100.00
64521;BME280;50896;46.714;17.322;2024-01-30T10:02:06;102745.31;;;2.99;100.00
64521;BME280;50896;46.714;17.322;2024-01-30T10:04:34;102736.22;;;3.08;100.00
64521;BME280;50896;46.714;17.322;2024-01-30T10:07:02;102731.19;;;3.25;100.00
64521;BME280;50896;46.714;17.322;2024-01-30T10:09:32;102725.31;;;3.19;100.00
64521;BME280;50896;46.714;17.322;2024-01-30T10:11:59;102734.78;;;3.23;100.00
64521;BME280;50896;46.714;17.322;2024-01-30T10:14:26;102732.41;;;3.17;100.00
64521;BME280;50896;46.714;17.322;2024-01-30T10:16:53;102726.06;;;2.99;100.00
64521;BME280;50896;46.714;17.322;2024-01-30T10:19:19;102722.03;;;3.12;100.00
64521;BME280;50896;46.714;17.322;2024-01-30T10:21:46;102724.28;;;3.23;100.00
64521;BME280;50896;46.714;17.322;2024-01-30T10:24:13;102720.44;;;3.32;100.00
64521;BME280;50896;46.714;17.322;2024-01-30T10:26:43;102703.00;;;3.29;100.00
64521;BME280;50896;46.714;17.322;2024-01-30T10:29:10;102706.44;;;3.31;100.00
64521;BME280;50896;46.714;17.322;2024-01-30T10:31:37;102703.34;;;3.44;100.00
64521;BME280;50896;46.714;17.322;2024-01-30T10:34:04;102705.53;;;3.54;100.00
64521;BME280;50896;46.714;17.322;2024-01-30T10:36:46;102703.31;;;3.67;100.00
64521;BME280;50896;46.714;17.322;2024-01-30T10:39:16;102696.66;;;3.79;100.00
64521;BME280;50896;46.714;17.322;2024-01-30T10:41:44;102699.63;;;3.71;100.00
64521;BME280;50896;46.714;17.322;2024-01-30T10:44:11;102688.56;;;3.63;100.00
64521;BME280;50896;46.714;17.322;2024-01-30T10:46:39;102691.97;;;3.65;100.00
64521;BME280;50896;46.714;17.322;2024-01-30T10:49:08;102684.81;;;3.69;100.00
64521;BME280;50896;46.714;17.322;2024-01-30T10:51:36;102681.16;;;3.73;100.00
64521;BME280;50896;46.714;17.322;2024-01-30T10:54:05;102670.41;;;3.78;100.00
64521;BME280;50896;46.714;17.322;2024-01-30T10:56:33;102678.59;;;3.92;100.00
64521;BME280;50896;46.714;17.322;2024-01-30T10:59:01;102675.72;;;3.98;100.00
64521;BME280;50896;46.714;17.322;2024-01-30T11:01:28;102673.28;;;3.93;100.00
64521;BME280;50896;46.714;17.322;2024-01-30T11:03:56;102672.75;;;4.06;100.00
64521;BME280;50896;46.714;17.322;2024-01-30T11:06:27;102666.97;;;4.18;100.00
64521;BME280;50896;46.714;17.322;2024-01-30T11:09:01;102669.16;;;4.08;100.00
64521;BME280;50896;46.714;17.322;2024-01-30T11:11:30;102656.31;;;4.01;100.00
64521;BME280;50896;46.714;17.322;2024-01-30T11:14:00;102660.06;;;4.16;100.00
64521;BME280;50896;46.714;17.322;2024-01-30T11:16:32;102661.66;;;4.20;100.00
64521;BME280;50896;46.714;17.322;2024-01-30T11:19:00;102656.44;;;4.18;100.00
64521;BME280;50896;46.714;17.322;2024-01-30T11:21:29;102647.81;;;4.35;100.00
64521;BME280;50896;46.714;17.322;2024-01-30T11:23:56;102650.19;;;4.62;100.00
64521;BME280;50896;46.714;17.322;2024-01-30T11:26:30;102648.59;;;4.77;100.00
64521;BME280;50896;46.714;17.322;2024-01-30T11:28:58;102640.44;;;4.83;100.00
64521;BME280;50896;46.714;17.322;2024-01-30T11:31:25;102638.84;;;4.98;100.00
64521;BME280;50896;46.714;17.322;2024-01-30T11:33:53;102641.50;;;5.17;100.00
64521;BME280;50896;46.714;17.322;2024-01-30T11:36:25;102633.50;;;5.19;100.00
64521;BME280;50896;46.714;17.322;2024-01-30T11:38:54;102621.31;;;5.16;100.00
64521;BME280;50896;46.714;17.322;2024-01-30T11:41:22;102622.34;;;5.13;100.00
64521;BME280;50896;46.714;17.322;2024-01-30T11:43:53;102638.09;;;5.15;100.00
64521;BME280;50896;46.714;17.322;2024-01-30T11:46:20;102631.75;;;5.19;100.00
64521;BME280;50896;46.714;17.322;2024-01-30T11:48:48;102615.88;;;6.10;100.00
64521;BME280;50896;46.714;17.322;2024-01-30T11:51:16;102616.25;;;7.65;100.00
64521;BME280;50896;46.714;17.322;2024-01-30T11:53:49;102602.31;;;8.80;100.00
64521;BME280;50896;46.714;17.322;2024-01-30T11:56:16;102606.13;;;10.49;100.00
64521;BME280;50896;46.714;17.322;2024-01-30T11:58:43;102593.72;;;11.59;83.03
64521;BME280;50896;46.714;17.322;2024-01-30T12:01:11;102592.91;;;12.85;71.35
64521;BME280;50896;46.714;17.322;2024-01-30T12:03:38;102597.72;;;13.03;65.93
64521;BME280;50896;46.714;17.322;2024-01-30T12:06:05;102593.38;;;12.00;68.69
64521;BME280;50896;46.714;17.322;2024-01-30T12:08:33;102591.47;;;10.43;75.30
64521;BME280;50896;46.714;17.322;2024-01-30T12:11:00;102589.53;;;10.33;79.20
64521;BME280;50896;46.714;17.322;2024-01-30T12:13:32;102572.94;;;11.16;73.20
64521;BME280;50896;46.714;17.322;2024-01-30T12:16:00;102567.59;;;10.68;74.11
64521;BME280;50896;46.714;17.322;2024-01-30T12:18:27;102570.19;;;10.18;77.08
64521;BME280;50896;46.714;17.322;2024-01-30T12:20:58;102567.75;;;8.52;91.24
64521;BME280;50896;46.714;17.322;2024-01-30T12:23:29;102563.97;;;7.38;100.00
64521;BME280;50896;46.714;17.322;2024-01-30T12:25:57;102580.91;;;7.19;100.00
64521;BME280;50896;46.714;17.322;2024-01-30T12:28:23;102560.19;;;7.73;100.00
64521;BME280;50896;46.714;17.322;2024-01-30T12:30:55;102556.63;;;9.16;95.88
64521;BME280;50896;46.714;17.322;2024-01-30T12:33:26;102539.81;;;9.43;89.96